createdAt,value
2023-01-27T00:00:14.591Z,18.40
2023-01-27T00:03:16.290Z,17.60
2023-01-27T00:06:19.204Z,18.40
2023-01-27T00:09:20.216Z,17.60
2023-01-27T00:12:50.218Z,16.70
2023-01-27T00:15:52.254Z,17.70
2023-01-27T00:18:54.396Z,17.60
2023-01-27T00:22:13.223Z,18.20
2023-01-27T00:25:14.356Z,16.90
2023-01-27T00:28:14.274Z,18.40
2023-01-27T00:31:34.399Z,16.60
2023-01-27T00:34:36.538Z,16.90
2023-01-27T00:37:36.243Z,17.20
2023-01-27T00:40:36.254Z,17.00
2023-01-27T00:43:37.267Z,15.70
2023-01-27T00:46:41.652Z,16.60
2023-01-27T00:49:42.258Z,17.80
2023-01-27T00:52:45.287Z,19.10
2023-01-27T00:55:46.292Z,17.70
2023-01-27T00:58:46.322Z,20.10
2023-01-27T01:01:51.297Z,19.00
2023-01-27T01:04:52.300Z,21.60
2023-01-27T01:07:53.299Z,20.00
2023-01-27T01:10:56.277Z,20.90
2023-01-27T01:13:56.769Z,19.20
2023-01-27T01:16:58.333Z,19.70
2023-01-27T01:19:58.322Z,19.40
2023-01-27T01:22:59.371Z,21.10
2023-01-27T01:26:06.449Z,22.00
2023-01-27T01:29:08.488Z,21.10
2023-01-27T01:35:11.579Z,22.70
2023-01-27T01:38:14.650Z,24.80
2023-01-27T01:41:15.361Z,22.40
2023-01-27T01:44:34.321Z,22.90
2023-01-27T01:47:39.404Z,22.80
2023-01-27T01:50:41.661Z,19.20
2023-01-27T01:53:57.827Z,23.70
2023-01-27T01:57:05.445Z,24.40
2023-01-27T02:00:12.951Z,23.80
2023-01-27T02:03:13.365Z,26.80
2023-01-27T02:06:15.646Z,24.50
2023-01-27T02:09:19.371Z,26.90
2023-01-27T02:12:20.474Z,25.20
2023-01-27T02:15:21.426Z,26.60
2023-01-27T02:18:23.433Z,26.20
2023-01-27T02:21:25.828Z,24.20
2023-01-27T02:24:26.512Z,26.80
2023-01-27T02:27:28.539Z,23.80
2023-01-27T02:30:31.909Z,28.00
2023-01-27T02:33:32.445Z,24.20
2023-01-27T02:36:38.437Z,25.70
2023-01-27T02:39:41.469Z,26.50
2023-01-27T02:42:41.451Z,28.30
2023-01-27T02:45:43.460Z,27.20
2023-01-27T02:48:46.367Z,28.20
2023-01-27T02:51:46.578Z,27.50
2023-01-27T02:54:47.471Z,28.10
2023-01-27T02:57:50.516Z,29.50
2023-01-27T03:01:05.662Z,26.50
2023-01-27T03:04:05.563Z,24.50
2023-01-27T03:07:08.495Z,30.30
2023-01-27T03:10:12.785Z,30.00
2023-01-27T03:16:37.509Z,30.80
2023-01-27T03:19:37.552Z,27.70
2023-01-27T03:22:38.571Z,29.30
2023-01-27T03:25:38.757Z,29.30
2023-01-27T03:28:39.509Z,29.40
2023-01-27T03:31:44.581Z,31.80
2023-01-27T03:34:46.581Z,33.10
2023-01-27T03:38:11.538Z,30.80
2023-01-27T03:41:36.531Z,31.00
2023-01-27T03:44:54.634Z,34.40
2023-01-27T03:47:54.674Z,34.60
2023-01-27T03:50:59.644Z,34.30
2023-01-27T03:53:59.570Z,34.40
2023-01-27T03:57:00.598Z,31.90
2023-01-27T04:00:00.585Z,35.70
2023-01-27T04:03:25.713Z,36.60
2023-01-27T04:06:51.852Z,33.60
2023-01-27T04:09:52.602Z,35.20
2023-01-27T04:12:52.594Z,35.00
2023-01-27T04:15:53.811Z,36.10
2023-01-27T04:18:54.652Z,36.50
2023-01-27T04:21:55.623Z,35.80
2023-01-27T04:24:59.634Z,35.40
2023-01-27T04:28:00.681Z,34.00
2023-01-27T04:31:00.744Z,34.50
2023-01-27T04:34:04.316Z,33.70
2023-01-27T04:37:04.922Z,33.30
2023-01-27T04:40:04.618Z,37.30
2023-01-27T04:43:06.642Z,33.00
2023-01-27T04:46:06.913Z,35.20
2023-01-27T04:49:06.677Z,31.60
2023-01-27T04:52:06.663Z,34.80
2023-01-27T04:55:10.679Z,31.60
2023-01-27T04:58:12.789Z,32.30
2023-01-27T05:01:12.693Z,33.50
2023-01-27T05:04:13.031Z,30.50
2023-01-27T05:07:13.766Z,32.50
2023-01-27T05:10:13.902Z,34.40
2023-01-27T05:13:14.990Z,34.30
2023-01-27T05:16:29.871Z,37.00
2023-01-27T05:19:29.667Z,32.00
2023-01-27T05:22:29.739Z,34.40
2023-01-27T05:25:29.726Z,33.40
2023-01-27T05:28:29.767Z,30.10
2023-01-27T05:31:40.203Z,30.00
2023-01-27T05:34:43.761Z,32.80
2023-01-27T05:37:43.715Z,33.70
2023-01-27T05:40:43.763Z,37.50
2023-01-27T05:43:45.798Z,35.70
2023-01-27T05:46:45.799Z,32.70
2023-01-27T05:49:45.733Z,32.20
2023-01-27T05:52:47.765Z,30.90
2023-01-27T05:55:47.781Z,33.20
2023-01-27T05:58:48.805Z,34.60
2023-01-27T06:01:49.795Z,33.40
2023-01-27T06:04:53.951Z,35.00
2023-01-27T06:07:57.596Z,33.20
2023-01-27T06:10:58.915Z,33.70
2023-01-27T06:14:01.788Z,34.10
2023-01-27T06:17:03.002Z,33.60
2023-01-27T06:20:03.848Z,35.80
2023-01-27T06:23:05.255Z,31.80
2023-01-27T06:26:06.844Z,33.40
2023-01-27T06:29:09.822Z,35.40
2023-01-27T06:32:09.936Z,34.10
2023-01-27T06:35:12.054Z,35.80
2023-01-27T06:38:13.052Z,35.40
2023-01-27T06:41:13.056Z,33.90
2023-01-27T06:44:12.915Z,37.20
2023-01-27T06:47:12.845Z,36.70
2023-01-27T06:50:15.244Z,36.20
2023-01-27T06:53:23.441Z,33.70
2023-01-27T06:56:29.256Z,35.40
2023-01-27T06:59:50.028Z,35.60
2023-01-27T07:02:50.033Z,33.40
2023-01-27T07:05:54.106Z,37.30
2023-01-27T07:08:59.949Z,36.30
2023-01-27T07:12:03.132Z,36.60
2023-01-27T07:15:04.914Z,35.30
2023-01-27T07:18:08.137Z,33.50
2023-01-27T07:21:08.550Z,35.60
2023-01-27T07:24:08.969Z,32.40
2023-01-27T07:27:11.913Z,37.20
2023-01-27T07:30:14.409Z,27.70
2023-01-27T07:33:23.324Z,31.40
2023-01-27T07:36:24.944Z,30.40
2023-01-27T07:39:24.903Z,33.50
2023-01-27T07:42:26.066Z,33.30
2023-01-27T07:45:27.168Z,30.20
2023-01-27T07:48:29.247Z,29.70
2023-01-27T07:51:28.991Z,31.40
2023-01-27T07:54:28.965Z,31.60
2023-01-27T07:57:30.972Z,30.90
2023-01-27T08:00:34.944Z,28.60
2023-01-27T08:03:39.065Z,30.70
2023-01-27T08:06:42.968Z,28.00
2023-01-27T08:09:44.988Z,30.20
2023-01-27T08:12:46.084Z,23.60
2023-01-27T08:15:47.146Z,31.00
2023-01-27T08:18:48.014Z,33.00
2023-01-27T08:21:49.997Z,29.50
2023-01-27T08:24:51.025Z,30.00
2023-01-27T08:27:53.092Z,32.20
2023-01-27T08:31:01.621Z,31.40
2023-01-27T08:34:05.042Z,30.00
2023-01-27T08:37:06.061Z,30.50
2023-01-27T08:40:06.093Z,32.90
2023-01-27T08:43:08.125Z,35.70
2023-01-27T08:46:11.254Z,35.70
2023-01-27T08:49:12.107Z,35.90
2023-01-27T08:55:17.278Z,34.80
2023-01-27T08:58:17.059Z,32.50
2023-01-27T09:01:17.290Z,38.80
2023-01-27T09:04:19.501Z,36.40
2023-01-27T09:07:22.603Z,35.60
2023-01-27T09:10:23.341Z,33.90
2023-01-27T09:13:24.307Z,37.90
2023-01-27T09:16:24.130Z,34.00
2023-01-27T09:19:26.103Z,39.40
2023-01-27T09:22:26.102Z,39.30
2023-01-27T09:25:28.106Z,38.60
2023-01-27T09:28:28.152Z,37.90
2023-01-27T09:31:29.463Z,34.30
2023-01-27T09:34:29.125Z,32.00
2023-01-27T09:37:30.285Z,35.90
2023-01-27T09:41:02.143Z,33.10
2023-01-27T09:44:09.154Z,37.50
2023-01-27T09:47:20.186Z,36.30
2023-01-27T09:50:59.144Z,37.60
2023-01-27T09:54:11.240Z,38.70
2023-01-27T09:57:21.140Z,37.50
2023-01-27T10:00:51.301Z,36.60
2023-01-27T10:04:05.178Z,36.70
2023-01-27T10:07:23.257Z,36.60
2023-01-27T10:10:30.158Z,35.20
2023-01-27T10:13:41.228Z,37.60
2023-01-27T10:16:58.188Z,36.90
2023-01-27T10:20:12.565Z,35.70
2023-01-27T10:23:45.240Z,36.10
2023-01-27T10:26:56.234Z,35.40
2023-01-27T10:30:33.397Z,35.10
2023-01-27T10:36:49.442Z,29.80
2023-01-27T10:40:06.245Z,30.90
2023-01-27T10:43:36.191Z,30.40
2023-01-27T10:46:48.313Z,30.10
2023-01-27T10:49:57.290Z,27.50
2023-01-27T10:53:19.267Z,27.20
2023-01-27T10:56:31.245Z,28.00
2023-01-27T11:00:18.319Z,27.50
2023-01-27T11:03:27.276Z,28.30
2023-01-27T11:06:47.278Z,27.80
2023-01-27T11:09:52.283Z,26.80
2023-01-27T11:12:55.366Z,27.60
2023-01-27T11:15:55.297Z,25.50
2023-01-27T11:18:55.344Z,28.90
2023-01-27T11:22:08.230Z,27.80
2023-01-27T11:25:45.344Z,28.80
2023-01-27T11:29:05.317Z,28.60
2023-01-27T11:32:16.441Z,27.60
2023-01-27T11:35:17.341Z,28.40
2023-01-27T11:38:18.485Z,27.10
2023-01-27T11:41:19.341Z,26.10
2023-01-27T11:44:21.381Z,24.60
2023-01-27T11:47:32.799Z,26.60
2023-01-27T11:50:33.452Z,25.00
2023-01-27T11:53:42.432Z,25.80
2023-01-27T11:56:42.341Z,25.30
2023-01-27T11:59:51.495Z,24.20
2023-01-27T12:03:01.426Z,25.10
2023-01-27T12:06:07.431Z,25.20
2023-01-27T12:09:07.486Z,23.40
2023-01-27T12:12:27.363Z,23.90
2023-01-27T12:15:31.401Z,24.10
2023-01-27T12:18:34.504Z,23.20
2023-01-27T12:21:35.655Z,22.80
2023-01-27T12:24:40.433Z,21.50
2023-01-27T12:27:41.374Z,21.50
2023-01-27T12:30:48.481Z,20.00
2023-01-27T12:33:54.505Z,18.50
2023-01-27T12:36:56.506Z,17.10
2023-01-27T12:39:59.414Z,17.30
2023-01-27T12:43:15.561Z,17.70
2023-01-27T12:46:26.522Z,17.20
2023-01-27T12:49:27.525Z,17.80
2023-01-27T12:52:32.462Z,17.80
2023-01-27T12:56:13.452Z,15.10
2023-01-27T12:59:15.546Z,14.50
2023-01-27T13:02:34.518Z,14.40
2023-01-27T14:20:00.168Z,21.20
2023-01-27T14:23:16.025Z,19.40
2023-01-27T14:26:22.150Z,20.00
2023-01-27T14:29:46.081Z,17.50
2023-01-27T14:33:14.087Z,19.80
2023-01-27T14:36:32.140Z,19.00
2023-01-27T14:40:02.121Z,18.30
2023-01-27T14:43:18.239Z,17.70
2023-01-27T14:46:35.160Z,16.90
2023-01-27T14:50:12.134Z,17.90
2023-01-27T14:53:16.311Z,16.90
2023-01-27T14:56:34.113Z,19.70
2023-01-27T14:59:56.159Z,18.70
2023-01-27T15:03:14.186Z,18.60
2023-01-27T15:06:39.886Z,18.10
2023-01-27T15:09:53.318Z,18.30
2023-01-27T15:13:01.286Z,16.40
2023-01-27T15:16:22.192Z,18.00
2023-01-27T15:19:47.171Z,15.60
2023-01-27T15:22:56.200Z,15.30
2023-01-27T15:26:07.222Z,16.10
2023-01-27T15:29:08.157Z,16.70
2023-01-27T15:32:36.414Z,16.50
2023-01-27T15:35:50.224Z,17.10
2023-01-27T15:38:53.216Z,16.00
2023-01-27T15:42:07.214Z,16.40
2023-01-27T15:45:13.429Z,15.50
2023-01-27T15:48:24.237Z,18.50
2023-01-27T15:51:32.233Z,17.10
2023-01-27T15:54:41.266Z,17.40
2023-01-27T15:57:45.222Z,17.30
2023-01-27T16:00:50.270Z,17.70
2023-01-27T16:03:55.349Z,17.00
2023-01-27T16:07:08.259Z,17.30
2023-01-27T16:10:14.628Z,17.10
2023-01-27T16:13:34.301Z,16.50
2023-01-27T16:16:35.312Z,17.90
2023-01-27T16:20:06.231Z,16.70
2023-01-27T16:23:11.499Z,14.10
2023-01-27T16:26:21.304Z,16.40
2023-01-27T16:29:48.316Z,14.90
2023-01-27T16:32:54.387Z,16.30
2023-01-27T16:36:01.870Z,15.40
2023-01-27T16:39:07.723Z,16.90
2023-01-27T16:42:11.427Z,16.90
2023-01-27T16:45:17.291Z,16.70
2023-01-27T16:48:43.350Z,17.00
2023-01-27T16:51:43.333Z,16.30
2023-01-27T16:54:50.376Z,17.40
2023-01-27T16:57:56.337Z,15.80
2023-01-27T17:00:58.386Z,15.30
2023-01-27T17:04:07.609Z,15.80
2023-01-27T17:07:22.399Z,15.90
2023-01-27T17:10:34.660Z,16.20
2023-01-27T17:13:42.346Z,16.80
2023-01-27T17:16:50.414Z,17.60
2023-01-27T17:19:51.768Z,16.90
2023-01-27T17:23:00.374Z,16.60
2023-01-27T17:26:01.447Z,16.40
2023-01-27T17:29:02.433Z,15.90
2023-01-27T17:32:02.426Z,17.40
2023-01-27T17:35:11.737Z,16.30
2023-01-27T17:38:50.544Z,16.90
2023-01-27T17:41:51.442Z,15.20
2023-01-27T17:44:51.412Z,17.10
2023-01-27T17:47:51.953Z,17.40
2023-01-27T17:50:53.732Z,17.40
2023-01-27T17:53:55.643Z,16.80
2023-01-27T17:56:56.690Z,16.50
2023-01-27T17:59:59.453Z,18.70
2023-01-27T18:03:17.454Z,17.60
2023-01-27T18:06:17.500Z,16.10
2023-01-27T18:09:34.126Z,17.30
2023-01-27T18:13:03.924Z,17.60
2023-01-27T18:16:15.957Z,15.30
2023-01-27T18:19:31.551Z,16.10
2023-01-27T18:22:34.418Z,17.40
2023-01-27T18:25:38.024Z,16.30
2023-01-27T18:28:38.484Z,17.20
2023-01-27T18:31:49.303Z,18.30
2023-01-27T18:35:01.906Z,17.10
2023-01-27T18:38:13.503Z,18.60
2023-01-27T18:41:26.989Z,16.80
2023-01-27T18:44:33.722Z,17.50
2023-01-27T18:47:43.531Z,16.70
2023-01-27T18:50:43.725Z,17.00
2023-01-27T18:53:43.589Z,16.50
2023-01-27T18:56:44.650Z,17.20
2023-01-27T18:59:47.985Z,16.30
2023-01-27T19:02:51.858Z,15.70
2023-01-27T19:05:54.575Z,15.20
2023-01-27T19:08:58.917Z,14.70
2023-01-27T19:12:03.101Z,15.10
2023-01-27T19:15:07.665Z,16.30
2023-01-27T19:18:10.840Z,14.10
2023-01-27T19:21:18.817Z,15.50
2023-01-27T19:24:18.811Z,17.40
2023-01-27T19:27:25.677Z,14.50
2023-01-27T19:30:43.171Z,17.40
2023-01-27T19:33:45.587Z,17.40
2023-01-27T19:36:55.593Z,16.40
2023-01-27T19:39:57.856Z,17.20
2023-01-27T19:42:58.606Z,16.30
2023-01-27T19:46:03.683Z,16.20
2023-01-27T19:49:04.965Z,15.50
2023-01-27T19:52:05.099Z,16.70
2023-01-27T19:55:05.661Z,15.70
2023-01-27T19:58:06.605Z,16.40
2023-01-27T20:01:07.645Z,16.10
2023-01-27T20:04:08.702Z,16.30
2023-01-27T20:07:10.656Z,14.30
2023-01-27T20:10:14.334Z,16.70
2023-01-27T20:13:17.874Z,17.90
2023-01-27T20:16:20.712Z,16.30
2023-01-27T20:19:25.991Z,18.30
2023-01-27T20:22:28.851Z,14.90
2023-01-27T20:25:30.619Z,15.30
2023-01-27T20:31:40.871Z,16.80
2023-01-27T20:34:49.399Z,16.60
2023-01-27T20:37:51.881Z,15.10
2023-01-27T20:40:52.053Z,17.20
2023-01-27T20:43:53.855Z,17.80
2023-01-27T20:46:56.477Z,17.70
2023-01-27T20:50:04.311Z,17.20
2023-01-27T20:53:09.009Z,17.50
2023-01-27T20:56:13.379Z,17.60
2023-01-27T20:59:17.426Z,17.70
2023-01-27T21:02:22.136Z,17.30
2023-01-27T21:08:50.811Z,19.80
2023-01-27T21:12:13.891Z,18.00
2023-01-27T21:15:42.874Z,17.00
2023-01-27T21:19:19.550Z,17.30
2023-01-27T21:22:36.459Z,17.60
2023-01-27T21:29:45.138Z,19.10
2023-01-27T21:33:02.752Z,20.50
2023-01-27T21:36:10.992Z,20.10
2023-01-27T21:39:21.744Z,20.40
2023-01-27T21:42:45.836Z,20.60
2023-01-27T21:45:47.989Z,20.50
2023-01-27T21:48:53.145Z,20.20
2023-01-27T21:51:57.002Z,19.40
2023-01-27T21:54:57.787Z,19.70
2023-01-27T21:58:00.790Z,19.40
2023-01-27T22:01:04.851Z,19.00
2023-01-27T22:04:07.147Z,21.50
2023-01-27T22:07:07.910Z,20.20
2023-01-27T22:10:10.781Z,20.90
2023-01-27T22:13:11.825Z,18.40
2023-01-27T22:16:12.858Z,18.50
2023-01-27T22:19:13.785Z,19.60
2023-01-27T22:25:38.782Z,19.70
2023-01-27T22:28:42.636Z,18.00
2023-01-27T22:31:51.343Z,18.80
2023-01-27T22:34:53.848Z,18.20
2023-01-27T22:37:55.838Z,19.50
2023-01-27T22:41:15.166Z,18.20
2023-01-27T22:44:25.269Z,19.20
2023-01-27T22:47:26.981Z,20.10
2023-01-27T22:50:30.898Z,19.90
2023-01-27T22:53:48.920Z,19.40
2023-01-27T22:56:56.828Z,18.40
2023-01-27T23:00:00.882Z,20.80
2023-01-27T23:03:04.208Z,19.70
2023-01-27T23:06:18.948Z,19.90
2023-01-27T23:09:27.892Z,20.20
2023-01-27T23:12:29.932Z,18.20
2023-01-27T23:15:32.908Z,20.40
2023-01-27T23:18:35.954Z,18.90
2023-01-27T23:21:40.223Z,21.10
2023-01-27T23:24:42.030Z,22.10
2023-01-27T23:27:45.068Z,19.20
2023-01-27T23:30:48.903Z,19.50
2023-01-27T23:33:58.145Z,19.20
2023-01-27T23:37:01.913Z,21.50
2023-01-27T23:40:02.535Z,19.60
2023-01-27T23:43:06.405Z,19.70
2023-01-27T23:46:08.008Z,20.10
2023-01-27T23:49:13.961Z,17.70
2023-01-27T23:52:13.976Z,16.70
2023-01-27T23:55:14.256Z,17.60
2023-01-27T23:58:16.000Z,17.90
